createdAt,value
2023-05-19T00:00:03.020Z,312.89
2023-05-19T00:01:03.012Z,312.60
2023-05-19T00:02:03.005Z,314.39
2023-05-19T00:03:03.096Z,310.52
2023-05-19T00:04:03.130Z,310.23
2023-05-19T00:05:02.937Z,313.79
2023-05-19T00:06:02.973Z,314.09
2023-05-19T00:07:02.918Z,311.41
2023-05-19T00:08:02.919Z,313.79
2023-05-19T00:09:02.944Z,311.11
2023-05-19T00:10:02.907Z,312.60
2023-05-19T00:11:02.886Z,312.30
2023-05-19T00:12:02.862Z,311.70
2023-05-19T00:13:02.857Z,311.41
2023-05-19T00:14:02.859Z,311.41
2023-05-19T00:15:02.838Z,312.00
2023-05-19T00:16:02.854Z,311.70
2023-05-19T00:17:02.810Z,310.23
2023-05-19T00:18:02.864Z,310.82
2023-05-19T00:19:02.850Z,312.60
2023-05-19T00:20:02.780Z,311.11
2023-05-19T00:21:02.774Z,310.82
2023-05-19T00:22:02.783Z,312.60
2023-05-19T00:23:02.753Z,310.82
2023-05-19T00:24:02.762Z,309.64
2023-05-19T00:25:02.741Z,309.06
2023-05-19T00:26:02.732Z,308.19
2023-05-19T00:27:02.711Z,309.06
2023-05-19T00:28:02.702Z,307.33
2023-05-19T00:29:02.678Z,308.48
2023-05-19T00:30:02.690Z,308.77
2023-05-19T00:31:02.674Z,307.04
2023-05-19T00:32:02.684Z,307.33
2023-05-19T00:33:02.679Z,306.75
2023-05-19T00:34:02.632Z,305.89
2023-05-19T00:35:02.617Z,305.89
2023-05-19T00:36:02.628Z,305.32
2023-05-19T00:37:02.601Z,305.61
2023-05-19T00:38:02.591Z,306.18
2023-05-19T00:39:02.581Z,306.18
2023-05-19T00:40:02.577Z,304.19
2023-05-19T00:41:02.582Z,303.63
2023-05-19T00:42:02.544Z,303.07
2023-05-19T00:43:02.527Z,302.79
2023-05-19T00:44:02.525Z,302.79
2023-05-19T00:45:02.534Z,301.67
2023-05-19T00:46:02.528Z,300.84
2023-05-19T00:47:02.750Z,300.84
2023-05-19T00:48:02.530Z,300.84
2023-05-19T00:49:02.470Z,302.23
2023-05-19T00:50:02.465Z,298.92
2023-05-19T00:51:02.603Z,298.65
2023-05-19T00:52:02.463Z,298.65
2023-05-19T00:53:02.427Z,301.40
2023-05-19T00:54:02.414Z,298.11
2023-05-19T00:55:02.400Z,298.38
2023-05-19T00:56:02.454Z,297.84
2023-05-19T00:57:02.410Z,296.76
2023-05-19T00:58:02.463Z,296.76
2023-05-19T00:59:02.368Z,298.65
2023-05-19T01:00:02.452Z,298.11
2023-05-19T01:01:02.421Z,295.96
2023-05-19T01:02:02.382Z,295.96
2023-05-19T01:03:02.449Z,295.16
2023-05-19T01:04:02.540Z,294.63
2023-05-19T01:05:02.328Z,293.84
2023-05-19T01:06:02.372Z,297.03
2023-05-19T01:07:02.437Z,293.31
2023-05-19T01:08:02.399Z,294.10
2023-05-19T01:09:02.253Z,297.84
2023-05-19T01:10:02.244Z,294.37
2023-05-19T01:11:02.232Z,295.43
2023-05-19T01:12:02.240Z,294.89
2023-05-19T01:13:02.205Z,295.69
2023-05-19T01:14:02.201Z,295.16
2023-05-19T01:15:02.204Z,293.84
2023-05-19T01:16:02.217Z,295.43
2023-05-19T01:17:02.185Z,294.37
2023-05-19T01:18:02.215Z,292.79
2023-05-19T01:19:02.258Z,294.63
2023-05-19T01:20:02.188Z,294.89
2023-05-19T01:21:02.125Z,293.05
2023-05-19T01:22:02.119Z,294.10
2023-05-19T01:23:02.125Z,293.05
2023-05-19T01:24:02.091Z,292.01
2023-05-19T01:25:02.084Z,294.10
2023-05-19T01:26:02.065Z,292.79
2023-05-19T01:27:02.055Z,293.31
2023-05-19T01:28:02.072Z,292.01
2023-05-19T01:29:02.038Z,292.79
2023-05-19T01:30:02.030Z,293.31
2023-05-19T01:31:02.027Z,292.27
2023-05-19T01:32:02.028Z,293.31
2023-05-19T01:33:02.098Z,293.05
2023-05-19T01:34:01.985Z,293.31
2023-05-19T01:35:01.973Z,292.53
2023-05-19T01:36:01.960Z,293.31
2023-05-19T01:37:01.960Z,292.79
2023-05-19T01:38:01.943Z,292.79
2023-05-19T01:39:01.937Z,293.05
2023-05-19T01:40:01.952Z,290.20
2023-05-19T01:41:01.909Z,290.46
2023-05-19T01:42:01.907Z,291.49
2023-05-19T01:43:02.047Z,290.46
2023-05-19T01:44:01.883Z,290.71
2023-05-19T01:45:01.875Z,289.94
2023-05-19T01:46:01.924Z,290.46
2023-05-19T01:47:01.849Z,289.94
2023-05-19T01:48:01.908Z,288.92
2023-05-19T01:49:01.836Z,287.66
2023-05-19T01:50:01.816Z,287.15
2023-05-19T01:51:01.833Z,286.90
2023-05-19T01:52:01.789Z,286.40
2023-05-19T01:53:01.794Z,286.40
2023-05-19T01:54:01.800Z,286.15
2023-05-19T01:55:04.468Z,285.16
2023-05-19T01:56:01.751Z,285.90
2023-05-19T01:57:01.747Z,284.66
2023-05-19T01:58:01.760Z,285.90
2023-05-19T01:59:01.727Z,285.65
2023-05-19T02:00:01.717Z,286.15
2023-05-19T02:01:01.727Z,285.40
2023-05-19T02:02:01.685Z,285.90
2023-05-19T02:03:01.773Z,284.17
2023-05-19T02:04:01.679Z,285.65
2023-05-19T02:05:01.654Z,285.16
2023-05-19T02:06:01.644Z,284.66
2023-05-19T02:07:01.649Z,284.66
2023-05-19T02:08:01.627Z,284.91
2023-05-19T02:09:01.632Z,284.91
2023-05-19T02:10:01.613Z,285.16
2023-05-19T02:11:01.596Z,285.65
2023-05-19T02:12:01.581Z,284.91
2023-05-19T02:13:01.575Z,286.15
2023-05-19T02:14:01.613Z,286.90
2023-05-19T02:15:01.547Z,285.90
2023-05-19T02:16:01.553Z,287.91
2023-05-19T02:17:01.525Z,287.66
2023-05-19T02:18:01.590Z,287.66
2023-05-19T02:19:01.589Z,285.90
2023-05-19T02:20:01.489Z,287.40
2023-05-19T02:21:01.474Z,286.90
2023-05-19T02:22:01.472Z,288.42
2023-05-19T02:23:01.458Z,288.42
2023-05-19T02:24:01.473Z,288.67
2023-05-19T02:25:01.469Z,288.67
2023-05-19T02:26:01.432Z,291.49
2023-05-19T02:27:01.415Z,291.75
2023-05-19T02:28:01.412Z,290.97
2023-05-19T02:29:01.409Z,293.58
2023-05-19T02:30:01.390Z,293.31
2023-05-19T02:31:01.374Z,295.69
2023-05-19T02:32:01.399Z,296.23
2023-05-19T02:33:01.439Z,296.76
2023-05-19T02:34:01.356Z,298.38
2023-05-19T02:35:01.345Z,298.38
2023-05-19T02:36:01.313Z,298.92
2023-05-19T02:37:01.314Z,301.40
2023-05-19T02:38:01.315Z,300.57
2023-05-19T02:39:01.306Z,302.23
2023-05-19T02:40:01.266Z,303.91
2023-05-19T02:41:01.278Z,305.32
2023-05-19T02:42:01.246Z,306.46
2023-05-19T02:43:01.247Z,307.33
2023-05-19T02:44:01.242Z,307.90
2023-05-19T02:45:01.249Z,308.48
2023-05-19T02:46:01.258Z,309.94
2023-05-19T02:47:01.206Z,310.52
2023-05-19T02:48:01.334Z,312.60
2023-05-19T02:49:01.177Z,313.19
2023-05-19T02:50:01.216Z,313.79
2023-05-19T02:51:01.162Z,313.79
2023-05-19T02:52:01.154Z,312.89
2023-05-19T02:53:01.128Z,314.39
2023-05-19T02:54:01.140Z,315.90
2023-05-19T02:55:01.110Z,316.82
2023-05-19T02:56:01.109Z,317.43
2023-05-19T02:57:01.093Z,316.82
2023-05-19T02:58:01.078Z,318.05
2023-05-19T02:59:01.084Z,318.98
2023-05-19T03:00:01.090Z,318.67
2023-05-19T03:01:01.042Z,317.74
2023-05-19T03:02:01.070Z,316.82
2023-05-19T03:03:01.109Z,319.29
2023-05-19T03:04:01.156Z,321.16
2023-05-19T03:05:01.003Z,322.11
2023-05-19T03:06:01.010Z,321.48
2023-05-19T03:07:00.989Z,321.16
2023-05-19T03:08:01.010Z,322.74
2023-05-19T03:09:00.996Z,323.38
2023-05-19T03:10:00.959Z,323.38
2023-05-19T03:11:00.943Z,325.30
2023-05-19T03:12:00.929Z,322.74
2023-05-19T03:13:00.928Z,324.66
2023-05-19T03:14:00.908Z,326.60
2023-05-19T03:15:00.991Z,325.95
2023-05-19T03:16:00.905Z,326.92
2023-05-19T03:17:00.916Z,327.25
2023-05-19T03:18:01.001Z,325.30
2023-05-19T03:19:00.872Z,325.62
2023-05-19T03:20:00.883Z,327.25
2023-05-19T03:21:00.836Z,325.95
2023-05-19T03:22:00.825Z,326.92
2023-05-19T03:23:00.814Z,325.95
2023-05-19T03:24:00.827Z,326.60
2023-05-19T03:25:00.792Z,328.23
2023-05-19T03:26:00.803Z,328.23
2023-05-19T03:27:00.808Z,328.23
2023-05-19T03:28:00.769Z,328.23
2023-05-19T03:29:00.753Z,326.60
2023-05-19T03:30:00.751Z,328.89
2023-05-19T03:31:00.752Z,327.90
2023-05-19T03:32:00.757Z,328.89
2023-05-19T03:33:00.774Z,327.25
2023-05-19T03:34:00.694Z,328.56
2023-05-19T03:35:00.703Z,329.55
2023-05-19T03:36:00.685Z,328.89
2023-05-19T03:37:00.683Z,329.55
2023-05-19T03:38:00.653Z,329.55
2023-05-19T03:39:00.639Z,330.88
2023-05-19T03:40:00.652Z,329.88
2023-05-19T03:41:00.629Z,330.55
2023-05-19T03:42:00.615Z,330.88
2023-05-19T03:43:00.596Z,328.89
2023-05-19T03:44:00.592Z,330.55
2023-05-19T03:45:00.622Z,330.88
2023-05-19T03:46:00.698Z,330.55
2023-05-19T03:47:00.557Z,331.88
2023-05-19T03:48:00.570Z,332.55
2023-05-19T03:49:00.538Z,333.57
2023-05-19T03:50:00.543Z,334.93
2023-05-19T03:51:00.535Z,334.25
2023-05-19T03:52:00.502Z,334.25
2023-05-19T03:53:00.507Z,334.59
2023-05-19T03:54:00.480Z,333.91
2023-05-19T03:55:00.477Z,336.99
2023-05-19T03:56:00.470Z,335.62
2023-05-19T03:57:00.480Z,336.30
2023-05-19T03:58:00.436Z,335.62
2023-05-19T03:59:00.423Z,336.65
2023-05-19T04:00:00.443Z,336.30
2023-05-19T04:01:00.405Z,334.93
2023-05-19T04:02:00.444Z,338.73
2023-05-19T04:03:00.714Z,337.34
2023-05-19T04:04:00.417Z,337.69
2023-05-19T04:05:00.358Z,336.30
2023-05-19T04:06:00.354Z,333.91
2023-05-19T04:07:00.365Z,335.62
2023-05-19T04:08:00.336Z,338.73
2023-05-19T04:09:00.327Z,339.08
2023-05-19T04:10:00.336Z,337.69
2023-05-19T04:11:00.306Z,336.65
2023-05-19T04:12:00.284Z,337.34
2023-05-19T04:13:00.284Z,339.08
2023-05-19T04:14:00.273Z,336.99
2023-05-19T04:15:00.279Z,338.73
2023-05-19T04:16:00.298Z,335.27
2023-05-19T04:17:00.229Z,335.96
2023-05-19T04:18:00.264Z,335.62
2023-05-19T04:19:00.267Z,336.99
2023-05-19T04:20:00.245Z,336.30
2023-05-19T04:21:00.219Z,335.62
2023-05-19T04:22:00.175Z,336.99
2023-05-19T04:23:00.170Z,334.25
2023-05-19T04:24:00.177Z,333.57
2023-05-19T04:25:00.166Z,335.96
2023-05-19T04:26:00.146Z,334.93
2023-05-19T04:27:00.139Z,333.57
2023-05-19T04:28:00.129Z,334.59
2023-05-19T04:29:00.105Z,332.89
2023-05-19T04:30:00.176Z,333.23
2023-05-19T04:31:00.224Z,333.91
2023-05-19T04:32:00.091Z,334.59
2023-05-19T04:33:00.092Z,335.96
2023-05-19T04:34:00.062Z,332.89
2023-05-19T04:35:00.057Z,334.59
2023-05-19T04:36:00.039Z,335.96
2023-05-19T04:37:00.022Z,334.59
2023-05-19T04:38:00.011Z,336.30
2023-05-19T04:38:59.991Z,335.96
2023-05-19T04:39:59.997Z,333.91
2023-05-19T04:40:59.977Z,334.93
2023-05-19T04:41:59.960Z,331.88
2023-05-19T04:42:59.955Z,332.89
2023-05-19T04:43:59.950Z,333.91
2023-05-19T04:44:59.952Z,334.25
2023-05-19T04:45:59.941Z,332.55
2023-05-19T04:46:59.964Z,331.21
2023-05-19T04:47:59.936Z,332.89
2023-05-19T04:48:59.895Z,332.89
2023-05-19T04:49:59.909Z,333.23
2023-05-19T04:50:59.862Z,332.22
2023-05-19T04:51:59.854Z,333.57
2023-05-19T04:52:59.850Z,333.57
2023-05-19T04:53:59.855Z,332.22
2023-05-19T04:54:59.838Z,330.88
2023-05-19T04:55:59.823Z,330.55
2023-05-19T04:56:59.816Z,333.57
2023-05-19T04:57:59.797Z,332.89
2023-05-19T04:58:59.778Z,333.91
2023-05-19T04:59:59.788Z,333.57
2023-05-19T05:00:59.755Z,334.25
2023-05-19T05:01:59.846Z,331.55
2023-05-19T05:02:59.776Z,330.88
2023-05-19T05:03:59.759Z,331.21
2023-05-19T05:04:59.715Z,330.88
2023-05-19T05:05:59.722Z,332.89
2023-05-19T05:06:59.693Z,330.88
2023-05-19T05:07:59.689Z,331.55
2023-05-19T05:08:59.667Z,332.89
2023-05-19T05:09:59.685Z,329.55
2023-05-19T05:10:59.684Z,331.88
2023-05-19T05:11:59.645Z,331.21
2023-05-19T05:12:59.629Z,331.88
2023-05-19T05:13:59.612Z,330.88
2023-05-19T05:14:59.598Z,327.90
2023-05-19T05:15:59.640Z,330.55
2023-05-19T05:16:59.592Z,328.23
2023-05-19T05:17:59.650Z,329.88
2023-05-19T05:18:59.602Z,330.21
2023-05-19T05:19:59.547Z,330.21
2023-05-19T05:20:59.550Z,327.58
2023-05-19T05:21:59.522Z,328.23
2023-05-19T05:22:59.522Z,328.89
2023-05-19T05:23:59.510Z,328.56
2023-05-19T05:24:59.494Z,328.89
2023-05-19T05:25:59.505Z,330.88
2023-05-19T05:26:59.500Z,329.22
2023-05-19T05:27:59.577Z,330.88
2023-05-19T05:28:59.456Z,327.25
2023-05-19T05:29:59.477Z,330.55
2023-05-19T05:30:59.460Z,327.90
2023-05-19T05:31:59.454Z,326.92
2023-05-19T05:32:59.456Z,329.88
2023-05-19T05:33:59.389Z,328.89
2023-05-19T05:34:59.395Z,327.90
2023-05-19T05:35:59.395Z,329.22
2023-05-19T05:36:59.371Z,330.21
2023-05-19T05:37:59.350Z,329.88
2023-05-19T05:38:59.341Z,327.58
2023-05-19T05:39:59.335Z,329.22
2023-05-19T05:40:59.352Z,329.55
2023-05-19T05:41:59.308Z,329.88
2023-05-19T05:42:59.304Z,330.55
2023-05-19T05:43:59.285Z,330.88
2023-05-19T05:44:59.278Z,329.55
2023-05-19T05:45:59.318Z,328.23
2023-05-19T05:46:59.276Z,330.88
2023-05-19T05:47:59.315Z,326.92
2023-05-19T05:48:59.234Z,328.56
2023-05-19T05:49:59.240Z,327.90
2023-05-19T05:50:59.258Z,326.92
2023-05-19T05:52:05.494Z,324.98
2023-05-19T05:53:00.201Z,327.58
2023-05-19T05:53:59.174Z,326.92
2023-05-19T05:54:59.183Z,326.60
2023-05-19T05:55:59.165Z,326.27
2023-05-19T05:56:59.176Z,324.02
2023-05-19T05:57:59.146Z,324.98
2023-05-19T05:58:59.134Z,324.66
2023-05-19T05:59:59.123Z,325.62
2023-05-19T06:00:59.111Z,325.62
2023-05-19T06:01:59.149Z,325.95
2023-05-19T06:02:59.290Z,324.02
2023-05-19T06:03:59.080Z,325.62
2023-05-19T06:04:59.132Z,324.34
2023-05-19T06:05:59.220Z,323.70
2023-05-19T06:06:59.057Z,324.34
2023-05-19T06:07:59.046Z,325.30
2023-05-19T06:08:59.031Z,325.95
2023-05-19T06:09:59.013Z,324.66
2023-05-19T06:10:59.005Z,324.34
2023-05-19T06:11:59.022Z,325.95
2023-05-19T06:12:59.023Z,325.62
2023-05-19T06:13:58.978Z,326.92
2023-05-19T06:14:58.962Z,329.55
2023-05-19T06:16:00.548Z,324.98
2023-05-19T06:16:58.951Z,325.62
2023-05-19T06:17:59.020Z,328.23
2023-05-19T06:18:59.083Z,326.92
2023-05-19T06:19:58.901Z,325.62
2023-05-19T06:20:58.898Z,328.89
2023-05-19T06:21:58.911Z,328.56
2023-05-19T06:22:58.871Z,327.25
2023-05-19T06:23:58.875Z,327.90
2023-05-19T06:24:58.860Z,330.88
2023-05-19T06:25:58.849Z,327.58
2023-05-19T06:26:58.863Z,331.21
2023-05-19T06:27:58.824Z,332.55
2023-05-19T06:28:58.808Z,332.22
2023-05-19T06:29:58.805Z,329.55
2023-05-19T06:30:58.848Z,328.89
2023-05-19T06:31:58.811Z,331.55
2023-05-19T06:32:58.827Z,334.25
2023-05-19T06:33:58.769Z,333.23
2023-05-19T06:34:58.769Z,333.57
2023-05-19T06:35:58.772Z,331.88
2023-05-19T06:36:58.726Z,334.25
2023-05-19T06:37:58.716Z,335.27
2023-05-19T06:39:00.154Z,335.62
2023-05-19T06:39:58.720Z,335.96
2023-05-19T06:40:58.712Z,339.08
2023-05-19T06:41:58.674Z,336.65
2023-05-19T06:42:58.680Z,336.99
2023-05-19T06:43:58.648Z,336.65
2023-05-19T06:44:58.640Z,338.39
2023-05-19T06:45:58.626Z,336.30
2023-05-19T06:46:58.680Z,338.73
2023-05-19T06:47:58.692Z,338.39
2023-05-19T06:48:58.610Z,340.49
2023-05-19T06:49:58.609Z,339.79
2023-05-19T06:50:58.581Z,341.55
2023-05-19T06:51:58.560Z,341.55
2023-05-19T06:52:58.592Z,342.27
2023-05-19T06:53:58.552Z,342.62
2023-05-19T06:54:58.530Z,342.62
2023-05-19T06:56:00.017Z,341.91
2023-05-19T06:56:58.540Z,341.55
2023-05-19T06:57:58.525Z,340.85
2023-05-19T06:58:58.485Z,339.43
2023-05-19T06:59:58.471Z,341.55
2023-05-19T07:00:58.488Z,342.62
2023-05-19T07:01:58.506Z,342.98
2023-05-19T07:02:58.517Z,343.70
2023-05-19T07:03:58.539Z,342.98
2023-05-19T07:04:58.422Z,343.70
2023-05-19T07:05:58.409Z,343.34
2023-05-19T07:06:58.414Z,343.70
2023-05-19T07:07:58.411Z,344.79
2023-05-19T07:08:58.393Z,344.42
2023-05-19T07:09:58.379Z,345.51
2023-05-19T07:10:58.362Z,344.42
2023-05-19T07:11:58.355Z,345.51
2023-05-19T07:12:58.356Z,343.70
2023-05-19T07:13:58.329Z,344.42
2023-05-19T07:14:58.315Z,344.79
2023-05-19T07:15:58.322Z,346.97
2023-05-19T07:16:58.287Z,345.88
2023-05-19T07:17:58.322Z,346.24
2023-05-19T07:18:58.329Z,345.51
2023-05-19T07:19:58.258Z,345.88
2023-05-19T07:20:58.253Z,344.79
2023-05-19T07:21:58.236Z,343.70
2023-05-19T07:22:58.280Z,345.88
2023-05-19T07:23:58.243Z,345.51
2023-05-19T07:24:58.211Z,348.45
2023-05-19T07:25:58.202Z,348.45
2023-05-19T07:26:58.193Z,347.71
2023-05-19T07:27:58.201Z,349.19
2023-05-19T07:28:58.163Z,349.19
2023-05-19T07:29:58.150Z,348.45
2023-05-19T07:30:58.146Z,349.93
2023-05-19T07:31:58.299Z,349.56
2023-05-19T07:32:58.245Z,348.82
2023-05-19T07:33:58.118Z,348.45
2023-05-19T07:34:58.109Z,347.71
2023-05-19T07:35:58.116Z,348.82
2023-05-19T07:36:58.079Z,352.19
2023-05-19T07:37:58.093Z,351.81
2023-05-19T07:38:58.076Z,351.06
2023-05-19T07:39:58.059Z,352.95
2023-05-19T07:41:54.533Z,395.98
2023-05-19T07:42:54.508Z,384.34
2023-05-19T07:43:54.531Z,379.74
2023-05-19T07:44:54.500Z,372.58
2023-05-19T07:45:54.507Z,372.16
2023-05-19T07:46:54.480Z,367.99
2023-05-19T07:47:54.511Z,370.06
2023-05-19T07:48:54.475Z,367.16
2023-05-19T07:49:54.457Z,366.75
2023-05-19T07:50:54.438Z,366.34
2023-05-19T07:51:54.409Z,366.34
2023-05-19T07:52:54.421Z,364.71
2023-05-19T07:53:54.391Z,367.57
2023-05-19T07:54:54.409Z,365.93
2023-05-19T07:55:55.446Z,364.71
2023-05-19T07:56:54.361Z,368.81
2023-05-19T07:57:54.353Z,366.75
2023-05-19T07:58:54.353Z,371.74
2023-05-19T07:59:54.346Z,370.90
2023-05-19T08:00:54.318Z,372.58
2023-05-19T08:01:54.301Z,374.28
2023-05-19T08:02:54.388Z,376.00
2023-05-19T08:03:54.426Z,378.17
2023-05-19T08:04:54.432Z,381.92
2023-05-19T08:05:54.273Z,377.73
2023-05-19T08:06:54.260Z,380.83
2023-05-19T08:07:54.239Z,382.58
2023-05-19T08:08:54.277Z,383.90
2023-05-19T08:09:54.220Z,384.12
2023-05-19T08:10:54.201Z,385.90
2023-05-19T08:11:54.207Z,389.51
2023-05-19T08:12:54.190Z,387.47
2023-05-19T08:13:54.201Z,389.05
2023-05-19T08:14:54.164Z,391.10
2023-05-19T08:15:54.168Z,390.65
2023-05-19T08:16:54.145Z,392.02
2023-05-19T08:17:54.169Z,392.48
2023-05-19T08:18:54.159Z,393.64
2023-05-19T08:19:54.125Z,393.41
2023-05-19T08:20:54.105Z,394.58
2023-05-19T08:21:54.083Z,396.92
2023-05-19T08:22:54.076Z,393.18
2023-05-19T08:23:54.081Z,396.69
2023-05-19T08:24:54.054Z,392.48
2023-05-19T08:25:54.040Z,384.12
2023-05-19T08:26:54.039Z,375.14
2023-05-19T08:27:54.057Z,374.71
2023-05-19T08:28:54.008Z,372.16
2023-05-19T08:29:54.001Z,376.86
2023-05-19T08:30:54.022Z,375.14
2023-05-19T08:31:54.186Z,377.73
2023-05-19T08:32:53.981Z,381.70
2023-05-19T08:33:53.978Z,382.14
2023-05-19T08:34:53.966Z,380.83
2023-05-19T08:35:53.938Z,382.14
2023-05-19T08:36:53.933Z,386.12
2023-05-19T08:37:53.919Z,391.10
2023-05-19T08:38:53.922Z,392.02
2023-05-19T08:39:53.894Z,395.04
2023-05-19T08:40:53.878Z,397.63
2023-05-19T08:41:53.894Z,397.63
2023-05-19T08:42:53.855Z,401.95
2023-05-19T08:43:53.870Z,401.46
2023-05-19T08:44:53.836Z,404.14
2023-05-19T08:45:53.829Z,404.63
2023-05-19T08:46:53.834Z,402.68
2023-05-19T08:47:53.819Z,406.36
2023-05-19T08:48:53.814Z,404.39
2023-05-19T08:49:53.776Z,410.86
2023-05-19T08:50:53.769Z,411.37
2023-05-19T08:51:53.755Z,409.10
2023-05-19T08:52:53.760Z,411.12
2023-05-19T08:53:53.753Z,413.92
2023-05-19T08:54:53.745Z,414.95
2023-05-19T08:55:53.727Z,414.95
2023-05-19T08:56:53.698Z,417.55
2023-05-19T08:57:53.692Z,420.18
2023-05-19T08:58:53.692Z,418.34
2023-05-19T08:59:53.687Z,419.13
2023-05-19T09:00:53.687Z,423.92
2023-05-19T09:01:53.661Z,420.45
2023-05-19T09:03:01.030Z,421.78
2023-05-19T09:03:54.703Z,424.46
2023-05-19T09:04:53.742Z,422.05
2023-05-19T09:05:53.670Z,426.09
2023-05-19T09:06:53.595Z,424.46
2023-05-19T09:07:53.585Z,425.01
2023-05-19T09:08:53.597Z,420.71
2023-05-19T09:09:53.589Z,415.47
2023-05-19T09:10:53.546Z,418.34
2023-05-19T09:11:53.535Z,417.55
2023-05-19T09:12:53.540Z,417.29
2023-05-19T09:13:53.509Z,411.62
2023-05-19T09:14:53.545Z,412.39
2023-05-19T09:15:53.491Z,411.88
2023-05-19T09:16:53.519Z,412.90
2023-05-19T09:17:53.479Z,413.67
2023-05-19T09:18:53.477Z,413.41
2023-05-19T09:19:53.479Z,417.03
2023-05-19T09:20:53.449Z,414.95
2023-05-19T09:21:53.433Z,415.47
2023-05-19T09:22:53.412Z,416.25
2023-05-19T09:23:53.404Z,418.34
2023-05-19T09:24:53.414Z,417.29
2023-05-19T09:25:53.450Z,415.21
2023-05-19T09:26:53.370Z,415.99
2023-05-19T09:27:53.367Z,409.35
2023-05-19T09:28:53.397Z,401.71
2023-05-19T09:29:53.358Z,391.56
2023-05-19T09:30:53.329Z,392.02
2023-05-19T09:31:53.329Z,391.56
2023-05-19T09:32:53.378Z,383.02
2023-05-19T09:33:53.296Z,373.43
2023-05-19T09:34:53.297Z,367.57
2023-05-19T09:35:53.271Z,357.95
2023-05-19T09:36:53.651Z,359.91
2023-05-19T09:37:53.266Z,367.16
2023-05-19T09:38:53.268Z,372.16
2023-05-19T09:39:53.260Z,382.58
2023-05-19T09:40:53.217Z,388.82
2023-05-19T09:41:53.222Z,388.37
2023-05-19T09:42:53.204Z,392.25
2023-05-19T09:43:53.193Z,393.18
2023-05-19T09:44:53.193Z,400.02
2023-05-19T09:45:53.195Z,399.54
2023-05-19T09:46:53.176Z,403.41
2023-05-19T09:47:53.170Z,403.90
2023-05-19T09:48:53.144Z,404.88
2023-05-19T09:49:53.128Z,405.86
2023-05-19T09:50:53.124Z,411.62
2023-05-19T09:51:53.103Z,412.64
2023-05-19T09:52:53.090Z,409.60
2023-05-19T09:53:53.072Z,412.64
2023-05-19T09:54:53.061Z,418.86
2023-05-19T09:55:53.082Z,416.25
2023-05-19T09:56:53.070Z,415.47
2023-05-19T09:57:53.032Z,414.44
2023-05-19T09:58:53.034Z,414.44
2023-05-19T09:59:53.012Z,410.86
2023-05-19T10:00:53.005Z,404.39
2023-05-19T10:01:53.127Z,404.39
2023-05-19T10:02:53.137Z,411.37
2023-05-19T10:03:53.005Z,408.35
2023-05-19T10:04:52.985Z,411.12
2023-05-19T10:05:53.002Z,414.44
2023-05-19T10:06:52.960Z,415.21
2023-05-19T10:07:52.941Z,418.86
2023-05-19T10:08:52.963Z,420.18
2023-05-19T10:09:52.908Z,420.45
2023-05-19T10:10:52.958Z,423.65
2023-05-19T10:11:52.902Z,426.36
2023-05-19T10:12:52.880Z,427.18
2023-05-19T10:13:52.864Z,427.46
2023-05-19T10:14:52.861Z,429.66
2023-05-19T10:15:58.738Z,432.45
2023-05-19T10:16:53.882Z,432.17
2023-05-19T10:17:52.874Z,434.42
2023-05-19T10:18:52.813Z,436.12
2023-05-19T10:19:52.787Z,439.28
2023-05-19T10:20:52.806Z,442.49
2023-05-19T10:21:52.776Z,445.45
2023-05-19T10:22:52.762Z,444.85
2023-05-19T10:23:52.746Z,446.04
2023-05-19T10:24:52.754Z,452.09
2023-05-19T10:25:52.736Z,449.65
2023-05-19T10:26:52.746Z,450.56
2023-05-19T10:27:56.635Z,450.56
2023-05-19T10:28:52.706Z,454.25
2023-05-19T10:29:52.694Z,453.32
2023-05-19T10:30:52.670Z,455.18
2023-05-19T10:31:52.743Z,455.18
2023-05-19T10:32:52.710Z,458.30
2023-05-19T10:33:52.649Z,457.05
2023-05-19T10:34:52.650Z,458.93
2023-05-19T10:35:52.649Z,460.84
2023-05-19T10:36:52.641Z,462.11
2023-05-19T10:37:52.602Z,465.02
2023-05-19T10:38:52.610Z,463.72
2023-05-19T10:39:52.584Z,463.40
2023-05-19T10:40:52.564Z,463.72
2023-05-19T10:41:52.585Z,464.69
2023-05-19T10:42:52.548Z,469.60
2023-05-19T10:43:52.528Z,467.95
2023-05-19T10:44:52.524Z,466.64
2023-05-19T10:45:52.512Z,467.95
2023-05-19T10:46:54.159Z,467.30
2023-05-19T10:47:52.528Z,466.32
2023-05-19T10:48:52.494Z,467.62
2023-05-19T10:49:52.480Z,465.34
2023-05-19T10:50:52.455Z,466.64
2023-05-19T10:51:52.474Z,467.95
2023-05-19T10:52:52.436Z,469.93
2023-05-19T10:53:52.419Z,468.28
2023-05-19T10:54:52.415Z,471.26
2023-05-19T10:55:52.433Z,471.59
2023-05-19T10:56:52.405Z,473.60
2023-05-19T10:57:52.384Z,473.94
2023-05-19T10:58:52.426Z,473.94
2023-05-19T10:59:52.383Z,476.31
2023-05-19T11:00:52.345Z,476.99
2023-05-19T11:01:52.387Z,486.38
2023-05-19T11:02:52.354Z,491.40
2023-05-19T11:03:52.448Z,495.42
2023-05-19T11:04:52.418Z,501.00
2023-05-19T11:05:52.335Z,501.76
2023-05-19T11:06:52.310Z,502.13
2023-05-19T11:07:52.314Z,505.18
2023-05-19T11:08:52.268Z,507.10
2023-05-19T11:09:52.276Z,508.26
2023-05-19T11:10:52.242Z,507.87
2023-05-19T11:11:52.258Z,510.20
2023-05-19T11:12:52.297Z,511.77
2023-05-19T11:13:52.290Z,516.92
2023-05-19T11:14:52.206Z,520.56
2023-05-19T11:15:52.193Z,520.96
2023-05-19T11:16:52.236Z,519.74
2023-05-19T11:17:52.212Z,520.56
2023-05-19T11:18:52.184Z,516.52
2023-05-19T11:19:52.144Z,517.33
2023-05-19T11:20:52.162Z,511.77
2023-05-19T11:21:52.129Z,510.98
2023-05-19T11:22:52.115Z,509.42
2023-05-19T11:23:52.172Z,510.98
2023-05-19T11:24:52.092Z,511.77
2023-05-19T11:25:52.076Z,514.14
2023-05-19T11:26:52.073Z,512.95
2023-05-19T11:27:52.063Z,514.14
2023-05-19T11:28:52.138Z,516.92
2023-05-19T11:29:52.057Z,522.19
2023-05-19T11:30:52.572Z,520.56
2023-05-19T11:31:52.082Z,512.16
2023-05-19T11:32:52.044Z,511.77
2023-05-19T11:33:52.009Z,516.92
2023-05-19T11:34:51.992Z,515.72
2023-05-19T11:35:51.990Z,514.93
2023-05-19T11:36:51.968Z,516.92
2023-05-19T11:37:51.961Z,520.15
2023-05-19T11:38:51.958Z,516.52
2023-05-19T11:39:51.933Z,512.95
2023-05-19T11:40:51.926Z,521.37
2023-05-19T11:41:51.907Z,520.56
2023-05-19T11:42:51.918Z,527.14
2023-05-19T11:43:51.886Z,528.39
2023-05-19T11:44:51.877Z,527.56
2023-05-19T11:45:51.893Z,528.81
2023-05-19T11:46:51.925Z,531.34
2023-05-19T11:48:02.019Z,531.76
2023-05-19T11:48:52.859Z,534.32
2023-05-19T11:49:51.813Z,536.47
2023-05-19T11:50:51.802Z,534.75
2023-05-19T11:51:51.799Z,536.04
2023-05-19T11:52:51.793Z,537.77
2023-05-19T11:53:51.793Z,535.18
2023-05-19T11:54:51.766Z,533.04
2023-05-19T11:55:52.153Z,535.61
2023-05-19T11:56:51.746Z,536.47
2023-05-19T11:58:02.928Z,537.77
2023-05-19T11:58:52.748Z,532.61
2023-05-19T11:59:51.714Z,535.61
2023-05-19T12:00:51.699Z,533.89
2023-05-19T12:01:51.684Z,531.34
2023-05-19T12:02:51.747Z,533.47
2023-05-19T12:03:51.873Z,533.89
2023-05-19T12:04:51.694Z,530.49
2023-05-19T12:05:51.843Z,530.49
2023-05-19T12:06:51.628Z,526.72
2023-05-19T12:07:51.625Z,518.53
2023-05-19T12:08:51.620Z,511.38
2023-05-19T12:09:51.605Z,507.87
2023-05-19T12:10:51.604Z,500.25
2023-05-19T12:11:51.577Z,489.24
2023-05-19T12:12:51.633Z,486.38
2023-05-19T12:13:51.575Z,488.52
2023-05-19T12:14:51.555Z,492.86
2023-05-19T12:15:51.548Z,501.76
2023-05-19T12:16:51.584Z,502.13
2023-05-19T12:17:51.548Z,502.51
2023-05-19T12:18:51.543Z,501.76
2023-05-19T12:19:51.491Z,501.76
2023-05-19T12:20:51.521Z,506.71
2023-05-19T12:21:51.491Z,507.87
2023-05-19T12:22:51.460Z,511.77
2023-05-19T12:23:51.454Z,509.03
2023-05-19T12:24:51.451Z,510.98
2023-05-19T12:25:51.448Z,511.38
2023-05-19T12:26:51.428Z,515.72
2023-05-19T12:27:51.401Z,508.64
2023-05-19T12:28:51.410Z,514.53